sensor_id;sensor_type;location;lat;lon;timestamp;pressure;altitude;pressure_sealevel;temperature;humidity
58373;BME280;44177;43.356;27.672;2023-09-19T00:01:28;98575.78;;;12.09;79.56
58373;BME280;44177;43.356;27.672;2023-09-19T00:03:56;98577.81;;;12.12;78.81
58373;BME280;44177;43.356;27.672;2023-09-19T00:06:22;98572.59;;;12.07;77.90
58373;BME280;44177;43.356;27.672;2023-09-19T00:08:54;98571.47;;;11.95;77.75
58373;BME280;44177;43.356;27.672;2023-09-19T00:11:20;98585.81;;;11.92;76.92
58373;BME280;44177;43.356;27.672;2023-09-19T00:13:47;98578.66;;;11.88;76.26
58373;BME280;44177;43.356;27.672;2023-09-19T00:16:15;98575.03;;;11.83;76.65
58373;BME280;44177;43.356;27.672;2023-09-19T00:18:40;98575.72;;;11.80;78.23
58373;BME280;44177;43.356;27.672;2023-09-19T00:21:06;98573.09;;;11.84;80.18
58373;BME280;44177;43.356;27.672;2023-09-19T00:23:32;98574.31;;;11.87;80.95
58373;BME280;44177;43.356;27.672;2023-09-19T00:25:59;98576.28;;;11.86;78.18
58373;BME280;44177;43.356;27.672;2023-09-19T00:28:24;98572.16;;;11.80;77.71
58373;BME280;44177;43.356;27.672;2023-09-19T00:30:50;98565.13;;;11.79;77.72
58373;BME280;44177;43.356;27.672;2023-09-19T00:33:15;98558.50;;;11.80;77.56
58373;BME280;44177;43.356;27.672;2023-09-19T00:35:52;98565.13;;;11.79;77.91
58373;BME280;44177;43.356;27.672;2023-09-19T00:38:18;98564.13;;;11.71;77.71
58373;BME280;44177;43.356;27.672;2023-09-19T00:40:47;98560.03;;;11.65;77.62
58373;BME280;44177;43.356;27.672;2023-09-19T00:43:13;98554.03;;;11.47;78.32
58373;BME280;44177;43.356;27.672;2023-09-19T00:45:42;98564.16;;;11.59;78.55
58373;BME280;44177;43.356;27.672;2023-09-19T00:48:08;98558.34;;;11.48;79.36
58373;BME280;44177;43.356;27.672;2023-09-19T00:50:35;98559.81;;;11.58;81.04
58373;BME280;44177;43.356;27.672;2023-09-19T00:53:02;98564.56;;;11.61;79.99
58373;BME280;44177;43.356;27.672;2023-09-19T00:55:35;98561.31;;;11.55;78.54
58373;BME280;44177;43.356;27.672;2023-09-19T00:58:02;98565.38;;;11.49;78.17
58373;BME280;44177;43.356;27.672;2023-09-19T01:00:28;98567.56;;;11.56;79.15
58373;BME280;44177;43.356;27.672;2023-09-19T01:02:54;98554.47;;;11.49;79.84
58373;BME280;44177;43.356;27.672;2023-09-19T01:05:20;98558.69;;;11.46;78.63
58373;BME280;44177;43.356;27.672;2023-09-19T01:07:46;98551.09;;;11.40;78.44
58373;BME280;44177;43.356;27.672;2023-09-19T01:10:19;98503.75;;;11.11;78.54
58373;BME280;44177;43.356;27.672;2023-09-19T01:18:11;98552.66;;;11.41;77.09
58373;BME280;44177;43.356;27.672;2023-09-19T01:20:45;98562.56;;;11.45;79.37
58373;BME280;44177;43.356;27.672;2023-09-19T01:23:39;98566.44;;;11.44;78.93
58373;BME280;44177;43.356;27.672;2023-09-19T01:31:57;98553.34;;;11.25;77.40
58373;BME280;44177;43.356;27.672;2023-09-19T01:34:26;98556.56;;;11.15;78.04
58373;BME280;44177;43.356;27.672;2023-09-19T01:36:52;98523.78;;;10.90;79.12
58373;BME280;44177;43.356;27.672;2023-09-19T01:39:17;98566.34;;;11.16;81.02
58373;BME280;44177;43.356;27.672;2023-09-19T01:45:03;98562.59;;;11.20;80.09
58373;BME280;44177;43.356;27.672;2023-09-19T01:48:01;98562.44;;;11.17;78.47
58373;BME280;44177;43.356;27.672;2023-09-19T01:50:46;98559.06;;;11.20;81.33
58373;BME280;44177;43.356;27.672;2023-09-19T01:56:22;98503.75;;;10.86;80.72
58373;BME280;44177;43.356;27.672;2023-09-19T01:58:54;98560.31;;;11.10;81.23
58373;BME280;44177;43.356;27.672;2023-09-19T02:01:24;98541.09;;;11.06;81.17
58373;BME280;44177;43.356;27.672;2023-09-19T02:03:50;98554.72;;;11.19;81.79
58373;BME280;44177;43.356;27.672;2023-09-19T02:06:16;98551.44;;;11.26;82.85
58373;BME280;44177;43.356;27.672;2023-09-19T02:08:43;98546.06;;;11.17;81.20
58373;BME280;44177;43.356;27.672;2023-09-19T02:11:13;98559.28;;;11.15;80.76
58373;BME280;44177;43.356;27.672;2023-09-19T02:13:39;98547.56;;;11.02;79.87
58373;BME280;44177;43.356;27.672;2023-09-19T02:16:06;98544.38;;;11.00;80.23
58373;BME280;44177;43.356;27.672;2023-09-19T02:18:32;98539.16;;;10.95;81.18
58373;BME280;44177;43.356;27.672;2023-09-19T02:21:03;98541.53;;;10.96;82.25
58373;BME280;44177;43.356;27.672;2023-09-19T02:23:29;98554.72;;;11.06;83.29
58373;BME280;44177;43.356;27.672;2023-09-19T02:25:56;98554.03;;;11.10;81.42
58373;BME280;44177;43.356;27.672;2023-09-19T02:28:26;98551.41;;;11.13;80.74
58373;BME280;44177;43.356;27.672;2023-09-19T02:30:55;98558.13;;;11.28;81.96
58373;BME280;44177;43.356;27.672;2023-09-19T02:33:21;98554.28;;;11.29;81.82
58373;BME280;44177;43.356;27.672;2023-09-19T02:35:47;98555.53;;;11.19;80.19
58373;BME280;44177;43.356;27.672;2023-09-19T02:38:12;98552.22;;;11.14;82.03
58373;BME280;44177;43.356;27.672;2023-09-19T02:40:38;98553.47;;;11.16;82.91
58373;BME280;44177;43.356;27.672;2023-09-19T02:43:04;98540.16;;;11.15;82.96
58373;BME280;44177;43.356;27.672;2023-09-19T02:45:30;98540.50;;;11.13;82.64
58373;BME280;44177;43.356;27.672;2023-09-19T02:47:56;98522.88;;;10.98;83.27
58373;BME280;44177;43.356;27.672;2023-09-19T02:50:22;98531.88;;;11.11;83.46
58373;BME280;44177;43.356;27.672;2023-09-19T02:52:48;98541.78;;;11.16;80.94
58373;BME280;44177;43.356;27.672;2023-09-19T02:55:15;98540.03;;;11.24;81.87
58373;BME280;44177;43.356;27.672;2023-09-19T02:57:48;98529.69;;;11.17;82.61
58373;BME280;44177;43.356;27.672;2023-09-19T03:00:16;98540.97;;;11.28;82.13
58373;BME280;44177;43.356;27.672;2023-09-19T03:02:42;98541.63;;;11.25;81.26
58373;BME280;44177;43.356;27.672;2023-09-19T03:05:08;98538.22;;;11.15;80.51
58373;BME280;44177;43.356;27.672;2023-09-19T03:07:36;98520.50;;;10.97;79.74
58373;BME280;44177;43.356;27.672;2023-09-19T03:10:04;98528.34;;;10.98;79.91
58373;BME280;44177;43.356;27.672;2023-09-19T03:12:30;98535.03;;;11.01;80.21
58373;BME280;44177;43.356;27.672;2023-09-19T03:14:57;98533.56;;;10.91;80.49
58373;BME280;44177;43.356;27.672;2023-09-19T03:17:22;98540.28;;;10.94;81.85
58373;BME280;44177;43.356;27.672;2023-09-19T03:19:48;98545.06;;;10.97;80.31
58373;BME280;44177;43.356;27.672;2023-09-19T03:22:14;98541.06;;;10.94;81.54
58373;BME280;44177;43.356;27.672;2023-09-19T03:24:40;98540.63;;;10.92;80.31
58373;BME280;44177;43.356;27.672;2023-09-19T03:27:11;98538.34;;;10.94;81.90
58373;BME280;44177;43.356;27.672;2023-09-19T03:29:39;98539.94;;;10.95;82.59
58373;BME280;44177;43.356;27.672;2023-09-19T03:32:05;98539.03;;;10.91;82.06
58373;BME280;44177;43.356;27.672;2023-09-19T03:34:30;98538.91;;;10.87;82.54
58373;BME280;44177;43.356;27.672;2023-09-19T03:36:56;98543.13;;;10.85;81.70
58373;BME280;44177;43.356;27.672;2023-09-19T03:39:21;98537.53;;;10.81;80.07
58373;BME280;44177;43.356;27.672;2023-09-19T03:41:46;98534.47;;;10.83;79.94
58373;BME280;44177;43.356;27.672;2023-09-19T03:44:12;98533.09;;;10.77;80.12
58373;BME280;44177;43.356;27.672;2023-09-19T03:46:37;98525.59;;;10.73;80.76
58373;BME280;44177;43.356;27.672;2023-09-19T03:49:04;98529.56;;;10.76;80.60
58373;BME280;44177;43.356;27.672;2023-09-19T03:51:29;98528.31;;;10.73;80.20
58373;BME280;44177;43.356;27.672;2023-09-19T03:53:55;98528.78;;;10.76;80.25
58373;BME280;44177;43.356;27.672;2023-09-19T03:56:20;98522.19;;;10.77;80.41
58373;BME280;44177;43.356;27.672;2023-09-19T03:58:45;98522.19;;;10.77;79.20
58373;BME280;44177;43.356;27.672;2023-09-19T04:01:11;98515.91;;;10.76;79.44
58373;BME280;44177;43.356;27.672;2023-09-19T04:03:38;98513.75;;;10.69;79.48
58373;BME280;44177;43.356;27.672;2023-09-19T04:06:16;98519.66;;;10.71;79.31
58373;BME280;44177;43.356;27.672;2023-09-19T04:08:42;98519.00;;;10.74;80.28
58373;BME280;44177;43.356;27.672;2023-09-19T04:11:08;98510.81;;;10.74;81.64
58373;BME280;44177;43.356;27.672;2023-09-19T04:13:34;98514.56;;;10.82;82.26
58373;BME280;44177;43.356;27.672;2023-09-19T04:15:59;98529.47;;;10.97;82.73
58373;BME280;44177;43.356;27.672;2023-09-19T04:18:25;98525.16;;;10.96;81.30
58373;BME280;44177;43.356;27.672;2023-09-19T04:20:51;98520.03;;;10.95;82.59
58373;BME280;44177;43.356;27.672;2023-09-19T04:23:17;98530.16;;;11.06;83.40
58373;BME280;44177;43.356;27.672;2023-09-19T04:25:43;98528.91;;;11.16;82.94
58373;BME280;44177;43.356;27.672;2023-09-19T04:28:09;98532.97;;;11.22;83.00
58373;BME280;44177;43.356;27.672;2023-09-19T04:30:39;98529.22;;;11.27;82.51
58373;BME280;44177;43.356;27.672;2023-09-19T04:33:08;98527.84;;;11.33;82.87
58373;BME280;44177;43.356;27.672;2023-09-19T04:35:33;98523.41;;;11.41;83.19
58373;BME280;44177;43.356;27.672;2023-09-19T04:37:59;98525.78;;;11.55;84.04
58373;BME280;44177;43.356;27.672;2023-09-19T04:40:25;98520.84;;;11.61;84.08
58373;BME280;44177;43.356;27.672;2023-09-19T04:42:55;98507.97;;;11.74;84.24
58373;BME280;44177;43.356;27.672;2023-09-19T04:45:24;98510.56;;;11.82;84.65
58373;BME280;44177;43.356;27.672;2023-09-19T04:47:50;98504.94;;;11.91;84.13
58373;BME280;44177;43.356;27.672;2023-09-19T04:50:15;98493.75;;;11.96;83.95
58373;BME280;44177;43.356;27.672;2023-09-19T04:52:43;98504.31;;;12.10;83.60
58373;BME280;44177;43.356;27.672;2023-09-19T04:55:13;98504.59;;;12.21;82.91
58373;BME280;44177;43.356;27.672;2023-09-19T04:57:46;98486.91;;;12.31;82.75
58373;BME280;44177;43.356;27.672;2023-09-19T05:00:17;98418.13;;;12.00;82.64
58373;BME280;44177;43.356;27.672;2023-09-19T05:02:45;98506.88;;;12.79;82.33
58373;BME280;44177;43.356;27.672;2023-09-19T05:05:11;98507.50;;;13.05;82.46
58373;BME280;44177;43.356;27.672;2023-09-19T05:07:42;98500.97;;;13.29;82.58
58373;BME280;44177;43.356;27.672;2023-09-19T05:10:08;98510.59;;;13.55;82.76
58373;BME280;44177;43.356;27.672;2023-09-19T05:12:36;98510.16;;;13.92;82.93
58373;BME280;44177;43.356;27.672;2023-09-19T05:15:03;98508.03;;;14.25;82.39
58373;BME280;44177;43.356;27.672;2023-09-19T05:17:29;98494.91;;;14.57;82.98
58373;BME280;44177;43.356;27.672;2023-09-19T05:19:55;98503.69;;;14.90;83.54
58373;BME280;44177;43.356;27.672;2023-09-19T05:22:20;98445.25;;;14.89;82.40
58373;BME280;44177;43.356;27.672;2023-09-19T05:24:46;98497.34;;;15.66;81.24
58373;BME280;44177;43.356;27.672;2023-09-19T05:27:14;98505.63;;;16.00;79.07
58373;BME280;44177;43.356;27.672;2023-09-19T05:29:45;98496.97;;;16.36;77.68
58373;BME280;44177;43.356;27.672;2023-09-19T05:32:11;98479.50;;;16.62;76.16
58373;BME280;44177;43.356;27.672;2023-09-19T05:34:37;98482.22;;;17.03;74.49
58373;BME280;44177;43.356;27.672;2023-09-19T05:37:03;98493.47;;;17.36;72.98
58373;BME280;44177;43.356;27.672;2023-09-19T05:39:29;98495.22;;;17.70;71.28
58373;BME280;44177;43.356;27.672;2023-09-19T05:41:54;98490.63;;;17.95;70.27
58373;BME280;44177;43.356;27.672;2023-09-19T05:44:22;98495.41;;;18.20;69.67
58373;BME280;44177;43.356;27.672;2023-09-19T05:46:47;98500.22;;;18.52;68.22
58373;BME280;44177;43.356;27.672;2023-09-19T05:49:14;98504.97;;;18.84;67.67
58373;BME280;44177;43.356;27.672;2023-09-19T05:51:39;98495.91;;;19.09;66.87
58373;BME280;44177;43.356;27.672;2023-09-19T05:54:05;98503.34;;;19.48;65.86
58373;BME280;44177;43.356;27.672;2023-09-19T05:56:30;98505.63;;;19.86;64.76
58373;BME280;44177;43.356;27.672;2023-09-19T05:58:56;98504.25;;;20.27;64.43
58373;BME280;44177;43.356;27.672;2023-09-19T06:01:22;98512.25;;;20.77;62.27
58373;BME280;44177;43.356;27.672;2023-09-19T06:03:47;98500.78;;;21.21;61.99
58373;BME280;44177;43.356;27.672;2023-09-19T06:06:13;98500.38;;;21.64;60.34
58373;BME280;44177;43.356;27.672;2023-09-19T06:08:39;98504.63;;;22.07;58.90
58373;BME280;44177;43.356;27.672;2023-09-19T06:11:04;98500.44;;;22.22;58.05
58373;BME280;44177;43.356;27.672;2023-09-19T06:13:32;98505.25;;;22.77;57.66
58373;BME280;44177;43.356;27.672;2023-09-19T06:15:58;98511.75;;;23.17;56.33
58373;BME280;44177;43.356;27.672;2023-09-19T06:18:27;98502.09;;;23.46;55.54
58373;BME280;44177;43.356;27.672;2023-09-19T06:20:54;98509.03;;;23.78;54.11
58373;BME280;44177;43.356;27.672;2023-09-19T06:23:21;98509.03;;;24.18;53.03
58373;BME280;44177;43.356;27.672;2023-09-19T06:25:47;98508.13;;;24.58;52.18
58373;BME280;44177;43.356;27.672;2023-09-19T06:28:13;98495.88;;;24.88;50.59
58373;BME280;44177;43.356;27.672;2023-09-19T06:30:40;98516.59;;;25.37;49.70
58373;BME280;44177;43.356;27.672;2023-09-19T06:33:05;98501.72;;;25.57;48.16
58373;BME280;44177;43.356;27.672;2023-09-19T06:35:34;98497.28;;;25.72;48.25
58373;BME280;44177;43.356;27.672;2023-09-19T06:38:03;98490.25;;;26.10;46.53
58373;BME280;44177;43.356;27.672;2023-09-19T06:40:29;98494.31;;;26.35;45.93
58373;BME280;44177;43.356;27.672;2023-09-19T06:42:56;98452.56;;;26.40;45.41
58373;BME280;44177;43.356;27.672;2023-09-19T06:45:22;98494.91;;;27.03;44.67
58373;BME280;44177;43.356;27.672;2023-09-19T06:47:49;98498.44;;;27.42;43.70
58373;BME280;44177;43.356;27.672;2023-09-19T06:50:15;98488.66;;;27.69;42.29
58373;BME280;44177;43.356;27.672;2023-09-19T06:52:44;98488.69;;;28.01;41.21
58373;BME280;44177;43.356;27.672;2023-09-19T06:55:10;98486.75;;;28.11;39.35
58373;BME280;44177;43.356;27.672;2023-09-19T06:57:38;98490.38;;;28.20;38.26
58373;BME280;44177;43.356;27.672;2023-09-19T07:00:06;98489.44;;;28.64;37.80
58373;BME280;44177;43.356;27.672;2023-09-19T07:02:41;98488.00;;;28.91;37.57
58373;BME280;44177;43.356;27.672;2023-09-19T07:05:07;98484.28;;;29.22;36.69
58373;BME280;44177;43.356;27.672;2023-09-19T07:07:32;98487.69;;;29.17;35.10
58373;BME280;44177;43.356;27.672;2023-09-19T07:10:01;98490.41;;;29.49;34.77
58373;BME280;44177;43.356;27.672;2023-09-19T07:12:26;98499.25;;;30.03;34.57
58373;BME280;44177;43.356;27.672;2023-09-19T07:14:51;98491.97;;;30.30;33.03
58373;BME280;44177;43.356;27.672;2023-09-19T07:17:17;98492.06;;;30.45;33.71
58373;BME280;44177;43.356;27.672;2023-09-19T07:19:44;98500.31;;;30.15;32.35
58373;BME280;44177;43.356;27.672;2023-09-19T07:22:10;98485.78;;;30.16;32.31
58373;BME280;44177;43.356;27.672;2023-09-19T07:24:36;98471.53;;;30.63;31.66
58373;BME280;44177;43.356;27.672;2023-09-19T07:27:02;98477.50;;;31.13;30.58
58373;BME280;44177;43.356;27.672;2023-09-19T07:29:28;98477.72;;;31.25;31.88
58373;BME280;44177;43.356;27.672;2023-09-19T07:31:53;98474.44;;;31.41;31.90
58373;BME280;44177;43.356;27.672;2023-09-19T07:34:19;98480.84;;;31.66;30.82
58373;BME280;44177;43.356;27.672;2023-09-19T07:36:47;98479.34;;;31.16;30.43
58373;BME280;44177;43.356;27.672;2023-09-19T07:39:13;98477.09;;;30.96;31.14
58373;BME280;44177;43.356;27.672;2023-09-19T07:41:38;98467.81;;;30.81;31.53
58373;BME280;44177;43.356;27.672;2023-09-19T07:44:04;98465.84;;;30.96;30.76
58373;BME280;44177;43.356;27.672;2023-09-19T07:46:29;98467.69;;;31.24;29.55
58373;BME280;44177;43.356;27.672;2023-09-19T07:48:57;98480.22;;;29.70;32.77
58373;BME280;44177;43.356;27.672;2023-09-19T07:51:22;98486.94;;;29.63;33.15
58373;BME280;44177;43.356;27.672;2023-09-19T07:53:48;98488.78;;;30.03;33.11
58373;BME280;44177;43.356;27.672;2023-09-19T07:56:13;98468.31;;;30.03;32.36
58373;BME280;44177;43.356;27.672;2023-09-19T07:58:39;98448.13;;;30.56;31.47
58373;BME280;44177;43.356;27.672;2023-09-19T08:01:07;98471.06;;;30.21;31.64
58373;BME280;44177;43.356;27.672;2023-09-19T08:03:33;98469.91;;;29.02;33.60
58373;BME280;44177;43.356;27.672;2023-09-19T08:06:00;98463.81;;;29.12;34.10
58373;BME280;44177;43.356;27.672;2023-09-19T08:08:27;98464.09;;;28.77;34.29
58373;BME280;44177;43.356;27.672;2023-09-19T08:10:56;98473.03;;;29.04;34.66
58373;BME280;44177;43.356;27.672;2023-09-19T08:13:25;98451.81;;;29.68;33.11
58373;BME280;44177;43.356;27.672;2023-09-19T08:15:51;98456.09;;;30.15;32.72
58373;BME280;44177;43.356;27.672;2023-09-19T08:18:18;98450.16;;;30.47;31.50
58373;BME280;44177;43.356;27.672;2023-09-19T08:20:50;98452.81;;;30.99;31.14
58373;BME280;44177;43.356;27.672;2023-09-19T08:23:16;98434.88;;;31.21;30.94
58373;BME280;44177;43.356;27.672;2023-09-19T08:25:43;98440.00;;;31.76;30.27
58373;BME280;44177;43.356;27.672;2023-09-19T08:28:09;98430.63;;;32.15;29.22
58373;BME280;44177;43.356;27.672;2023-09-19T08:30:37;98435.06;;;32.37;28.75
58373;BME280;44177;43.356;27.672;2023-09-19T08:33:03;98433.00;;;32.73;28.31
58373;BME280;44177;43.356;27.672;2023-09-19T08:35:30;98435.44;;;32.44;27.43
58373;BME280;44177;43.356;27.672;2023-09-19T08:37:55;98425.53;;;33.11;26.36
58373;BME280;44177;43.356;27.672;2023-09-19T08:40:22;98403.56;;;32.80;26.16
58373;BME280;44177;43.356;27.672;2023-09-19T08:45:14;98425.19;;;32.26;25.47
58373;BME280;44177;43.356;27.672;2023-09-19T08:47:49;98398.25;;;32.46;26.31
58373;BME280;44177;43.356;27.672;2023-09-19T08:50:26;98401.03;;;32.82;25.25
58373;BME280;44177;43.356;27.672;2023-09-19T08:52:55;98408.00;;;33.54;25.07
58373;BME280;44177;43.356;27.672;2023-09-19T08:55:26;98410.31;;;33.82;25.08
58373;BME280;44177;43.356;27.672;2023-09-19T08:57:52;98395.31;;;34.40;25.00
58373;BME280;44177;43.356;27.672;2023-09-19T09:00:24;98390.91;;;34.88;24.56
58373;BME280;44177;43.356;27.672;2023-09-19T09:02:54;98383.13;;;34.77;24.77
58373;BME280;44177;43.356;27.672;2023-09-19T09:05:22;98396.94;;;34.52;25.16
58373;BME280;44177;43.356;27.672;2023-09-19T09:07:52;98387.59;;;33.70;25.18
58373;BME280;44177;43.356;27.672;2023-09-19T09:10:21;98365.19;;;33.67;24.58
58373;BME280;44177;43.356;27.672;2023-09-19T09:12:51;98377.25;;;32.32;26.36
58373;BME280;44177;43.356;27.672;2023-09-19T09:15:22;98380.84;;;32.89;26.01
58373;BME280;44177;43.356;27.672;2023-09-19T09:17:49;98372.88;;;33.34;25.98
58373;BME280;44177;43.356;27.672;2023-09-19T09:20:16;98376.78;;;33.16;26.35
58373;BME280;44177;43.356;27.672;2023-09-19T09:22:56;98370.25;;;32.84;26.25
58373;BME280;44177;43.356;27.672;2023-09-19T09:28:26;98381.38;;;32.31;27.43
58373;BME280;44177;43.356;27.672;2023-09-19T09:30:52;98373.97;;;32.54;27.45
58373;BME280;44177;43.356;27.672;2023-09-19T09:33:18;98368.00;;;32.47;26.94
58373;BME280;44177;43.356;27.672;2023-09-19T09:35:55;98312.44;;;32.02;27.88
58373;BME280;44177;43.356;27.672;2023-09-19T09:38:45;98367.38;;;32.22;27.67
58373;BME280;44177;43.356;27.672;2023-09-19T09:41:11;98376.34;;;31.15;28.73
58373;BME280;44177;43.356;27.672;2023-09-19T09:43:41;98372.00;;;30.90;29.58
58373;BME280;44177;43.356;27.672;2023-09-19T09:51:43;98361.81;;;31.77;29.77
58373;BME280;44177;43.356;27.672;2023-09-19T09:54:17;98368.41;;;31.59;29.52
58373;BME280;44177;43.356;27.672;2023-09-19T09:56:56;98359.66;;;31.42;30.23
58373;BME280;44177;43.356;27.672;2023-09-19T09:59:44;98351.53;;;32.09;29.32
58373;BME280;44177;43.356;27.672;2023-09-19T10:02:15;98344.66;;;32.72;28.98
58373;BME280;44177;43.356;27.672;2023-09-19T10:04:48;98333.97;;;32.20;28.87
58373;BME280;44177;43.356;27.672;2023-09-19T10:07:32;98342.22;;;32.80;28.27
58373;BME280;44177;43.356;27.672;2023-09-19T10:10:04;98347.09;;;32.38;28.64
58373;BME280;44177;43.356;27.672;2023-09-19T10:12:53;98345.16;;;31.94;28.20
58373;BME280;44177;43.356;27.672;2023-09-19T10:15:23;98313.56;;;31.90;28.25
58373;BME280;44177;43.356;27.672;2023-09-19T10:17:51;98351.81;;;32.47;27.77
58373;BME280;44177;43.356;27.672;2023-09-19T10:20:23;98344.13;;;32.48;27.43
58373;BME280;44177;43.356;27.672;2023-09-19T10:23:00;98337.03;;;31.66;28.75
58373;BME280;44177;43.356;27.672;2023-09-19T10:25:26;98355.28;;;31.56;28.78
58373;BME280;44177;43.356;27.672;2023-09-19T10:28:00;98336.44;;;31.17;28.67
58373;BME280;44177;43.356;27.672;2023-09-19T10:30:29;98345.72;;;31.08;28.85
58373;BME280;44177;43.356;27.672;2023-09-19T10:33:01;98336.16;;;30.51;29.36
58373;BME280;44177;43.356;27.672;2023-09-19T10:35:28;98338.53;;;31.07;29.08
58373;BME280;44177;43.356;27.672;2023-09-19T10:37:56;98337.84;;;30.97;28.84
58373;BME280;44177;43.356;27.672;2023-09-19T10:40:22;98343.69;;;31.09;28.98
58373;BME280;44177;43.356;27.672;2023-09-19T10:43:01;98309.25;;;30.75;29.02
58373;BME280;44177;43.356;27.672;2023-09-19T10:45:28;98340.22;;;31.14;28.99
58373;BME280;44177;43.356;27.672;2023-09-19T10:47:57;98336.34;;;31.11;28.50
58373;BME280;44177;43.356;27.672;2023-09-19T10:50:23;98328.66;;;31.57;28.29
58373;BME280;44177;43.356;27.672;2023-09-19T10:52:53;98325.06;;;31.56;28.85
58373;BME280;44177;43.356;27.672;2023-09-19T10:55:25;98326.81;;;31.84;27.91
58373;BME280;44177;43.356;27.672;2023-09-19T10:57:53;98322.84;;;31.75;28.38
58373;BME280;44177;43.356;27.672;2023-09-19T11:00:19;98302.84;;;31.13;29.23
58373;BME280;44177;43.356;27.672;2023-09-19T11:03:23;98313.66;;;31.65;28.12
58373;BME280;44177;43.356;27.672;2023-09-19T11:08:27;98299.69;;;32.07;27.65
58373;BME280;44177;43.356;27.672;2023-09-19T11:10:52;98303.13;;;31.96;27.88
58373;BME280;44177;43.356;27.672;2023-09-19T11:13:29;98296.53;;;32.20;27.81
58373;BME280;44177;43.356;27.672;2023-09-19T11:26:48;98288.41;;;32.89;28.27
58373;BME280;44177;43.356;27.672;2023-09-19T11:29:29;98287.53;;;32.36;28.82
58373;BME280;44177;43.356;27.672;2023-09-19T11:31:57;98272.78;;;31.55;29.90
58373;BME280;44177;43.356;27.672;2023-09-19T11:39:39;98272.50;;;32.92;28.27
58373;BME280;44177;43.356;27.672;2023-09-19T11:42:47;98273.13;;;32.34;28.76
58373;BME280;44177;43.356;27.672;2023-09-19T11:48:13;98230.06;;;30.97;30.72
58373;BME280;44177;43.356;27.672;2023-09-19T11:50:42;98274.19;;;31.15;30.39
58373;BME280;44177;43.356;27.672;2023-09-19T11:53:12;98271.03;;;30.98;31.08
58373;BME280;44177;43.356;27.672;2023-09-19T11:55:38;98230.63;;;31.31;30.09
58373;BME280;44177;43.356;27.672;2023-09-19T11:58:07;98269.81;;;31.79;30.00
58373;BME280;44177;43.356;27.672;2023-09-19T12:00:33;98262.41;;;32.38;28.86
58373;BME280;44177;43.356;27.672;2023-09-19T12:03:08;98267.63;;;32.46;28.39
58373;BME280;44177;43.356;27.672;2023-09-19T12:05:34;98265.84;;;32.07;28.42
58373;BME280;44177;43.356;27.672;2023-09-19T12:08:00;98262.47;;;31.67;29.07
58373;BME280;44177;43.356;27.672;2023-09-19T12:10:27;98251.50;;;31.90;29.16
58373;BME280;44177;43.356;27.672;2023-09-19T12:12:52;98255.38;;;31.42;30.34
58373;BME280;44177;43.356;27.672;2023-09-19T12:15:27;98221.09;;;30.53;31.30
58373;BME280;44177;43.356;27.672;2023-09-19T12:18:00;98245.97;;;31.30;30.43
58373;BME280;44177;43.356;27.672;2023-09-19T12:20:41;98237.41;;;31.39;30.35
58373;BME280;44177;43.356;27.672;2023-09-19T12:23:13;98251.03;;;31.26;30.22
58373;BME280;44177;43.356;27.672;2023-09-19T12:25:43;98247.69;;;31.72;29.67
58373;BME280;44177;43.356;27.672;2023-09-19T12:28:17;98246.47;;;31.43;29.48
58373;BME280;44177;43.356;27.672;2023-09-19T12:30:43;98236.81;;;31.50;29.91
58373;BME280;44177;43.356;27.672;2023-09-19T12:33:19;98240.53;;;31.41;30.58
58373;BME280;44177;43.356;27.672;2023-09-19T12:35:51;98245.31;;;31.20;30.88
58373;BME280;44177;43.356;27.672;2023-09-19T12:40:50;98248.47;;;30.68;32.03
58373;BME280;44177;43.356;27.672;2023-09-19T12:43:17;98239.56;;;30.45;32.47
58373;BME280;44177;43.356;27.672;2023-09-19T12:45:43;98232.19;;;30.72;32.21
58373;BME280;44177;43.356;27.672;2023-09-19T12:51:12;98226.22;;;30.55;31.73
58373;BME280;44177;43.356;27.672;2023-09-19T12:53:41;98229.50;;;30.14;32.86
58373;BME280;44177;43.356;27.672;2023-09-19T12:56:13;98232.34;;;30.53;32.63
58373;BME280;44177;43.356;27.672;2023-09-19T12:58:56;98216.06;;;30.87;32.72
58373;BME280;44177;43.356;27.672;2023-09-19T13:01:25;98223.94;;;30.68;32.72
58373;BME280;44177;43.356;27.672;2023-09-19T13:04:11;98221.19;;;30.59;32.69
58373;BME280;44177;43.356;27.672;2023-09-19T13:06:57;98223.38;;;30.40;33.04
58373;BME280;44177;43.356;27.672;2023-09-19T13:09:26;98227.50;;;30.30;33.19
58373;BME280;44177;43.356;27.672;2023-09-19T13:12:04;98225.38;;;30.39;33.40
58373;BME280;44177;43.356;27.672;2023-09-19T13:14:32;98231.19;;;30.36;33.72
58373;BME280;44177;43.356;27.672;2023-09-19T13:17:04;98196.63;;;29.72;34.23
58373;BME280;44177;43.356;27.672;2023-09-19T13:19:37;98222.38;;;30.28;33.38
58373;BME280;44177;43.356;27.672;2023-09-19T13:22:35;98220.38;;;30.19;33.71
58373;BME280;44177;43.356;27.672;2023-09-19T13:24:50;98221.16;;;29.71;36.06
58373;BME280;44177;43.356;27.672;2023-09-19T13:27:16;98218.03;;;29.69;35.89
58373;BME280;44177;43.356;27.672;2023-09-19T13:29:42;98215.63;;;29.53;36.52
58373;BME280;44177;43.356;27.672;2023-09-19T13:32:07;98223.06;;;29.22;37.56
58373;BME280;44177;43.356;27.672;2023-09-19T13:34:36;98227.47;;;29.14;37.29
58373;BME280;44177;43.356;27.672;2023-09-19T13:37:03;98234.91;;;29.26;37.89
58373;BME280;44177;43.356;27.672;2023-09-19T13:39:30;98222.03;;;29.53;37.17
58373;BME280;44177;43.356;27.672;2023-09-19T13:41:55;98215.63;;;29.53;36.88
58373;BME280;44177;43.356;27.672;2023-09-19T13:44:21;98220.25;;;29.89;36.55
58373;BME280;44177;43.356;27.672;2023-09-19T13:46:46;98220.88;;;30.18;35.83
58373;BME280;44177;43.356;27.672;2023-09-19T13:49:12;98219.75;;;30.00;36.12
58373;BME280;44177;43.356;27.672;2023-09-19T13:51:37;98222.94;;;30.17;36.33
58373;BME280;44177;43.356;27.672;2023-09-19T13:54:03;98221.03;;;30.38;35.49